createdAt,value
2022-11-28T00:04:27.715Z,2.7
2022-11-28T00:10:47.609Z,2.7
2022-11-28T00:17:10.541Z,3.2
2022-11-28T00:23:30.615Z,3.2
2022-11-28T00:29:53.557Z,5.7
2022-11-28T00:36:13.551Z,5.7
2022-11-28T00:42:36.670Z,3.1
2022-11-28T00:48:56.568Z,3.1
2022-11-28T00:55:19.489Z,5.5
2022-11-28T01:01:39.925Z,5.5
2022-11-28T01:08:02.485Z,2.4
2022-11-28T01:14:22.527Z,2.4
2022-11-28T01:20:45.646Z,4.8
2022-11-28T01:27:05.582Z,4.8
2022-11-28T01:33:28.513Z,5.7
2022-11-28T01:39:48.689Z,5.7
2022-11-28T01:46:11.540Z,5.2
2022-11-28T01:52:31.546Z,5.2
2022-11-28T01:58:54.682Z,6
2022-11-28T02:05:14.543Z,6
2022-11-28T02:11:37.528Z,5.2
2022-11-28T02:17:57.727Z,5.2
2022-11-28T02:24:20.545Z,6.4
2022-11-28T02:30:40.523Z,6.4
2022-11-28T02:37:03.676Z,6.6
2022-11-28T02:43:23.539Z,6.6
2022-11-28T02:49:46.596Z,6.5
2022-11-28T02:56:06.665Z,6.5
2022-11-28T03:02:29.608Z,5.1
2022-11-28T03:08:49.573Z,5.1
2022-11-28T03:15:12.619Z,9.3
2022-11-28T03:21:32.497Z,9.3
2022-11-28T03:27:55.599Z,5.5
2022-11-28T03:34:15.726Z,5.5
2022-11-28T03:40:38.501Z,6.7
2022-11-28T03:46:58.588Z,6.7
2022-11-28T03:53:21.656Z,5.6
2022-11-28T03:59:41.494Z,5.6
2022-11-28T04:06:04.598Z,6.1
2022-11-28T04:12:24.692Z,6.1
2022-11-28T04:18:47.522Z,4
2022-11-28T04:41:36.548Z,6
2022-11-28T04:47:56.473Z,6
2022-11-28T04:54:19.666Z,8.2
2022-11-28T05:00:39.731Z,8.2
2022-11-28T05:07:02.551Z,4.7
2022-11-28T05:13:22.530Z,4.7
2022-11-28T05:19:45.586Z,8.2
2022-11-28T05:26:05.557Z,8.2
2022-11-28T05:32:28.557Z,8.7
2022-11-28T05:38:48.610Z,8.7
2022-11-28T05:45:11.564Z,4.9
2022-11-28T05:51:31.525Z,4.9
2022-11-28T05:57:54.745Z,4.8
2022-11-28T06:04:14.583Z,4.8
2022-11-28T06:10:37.528Z,5.9
2022-11-28T06:16:57.738Z,5.9
2022-11-28T06:23:20.524Z,4.8
2022-11-28T06:29:40.819Z,4.8
2022-11-28T06:36:03.639Z,7.1
2022-11-28T06:42:23.550Z,7.1
2022-11-28T06:48:46.626Z,8.1
2022-11-28T06:55:06.639Z,8.1
2022-11-28T07:01:29.658Z,5.5
2022-11-28T07:07:53.993Z,5.5
2022-11-28T07:14:12.727Z,8.5
2022-11-28T07:20:32.602Z,8.5
2022-11-28T07:26:55.730Z,11
2022-11-28T07:33:15.770Z,11
2022-11-28T07:39:38.581Z,9.6
2022-11-28T07:46:01.233Z,9.6
2022-11-28T07:52:21.596Z,9
2022-11-28T07:58:41.570Z,9
2022-11-28T08:05:04.679Z,11.5
2022-11-28T08:11:24.536Z,11.5
2022-11-28T08:17:47.491Z,7.2
2022-11-28T08:24:07.543Z,7.2
2022-11-28T08:30:30.539Z,8.8
2022-11-28T08:36:50.595Z,8.8
2022-11-28T08:43:13.537Z,6.7
2022-11-28T08:49:33.545Z,6.7
2022-11-28T08:55:56.545Z,6.9
2022-11-28T09:02:16.550Z,6.9
2022-11-28T09:08:39.542Z,4.6
2022-11-28T09:14:59.530Z,4.6
2022-11-28T09:21:22.513Z,5.5
2022-11-28T09:27:42.610Z,5.5
2022-11-28T09:34:05.495Z,4.8
2022-11-28T09:56:35.597Z,7.2
2022-11-28T10:02:55.523Z,7.2
2022-11-28T10:09:18.491Z,6.1
2022-11-28T10:15:38.615Z,6.1
2022-11-28T10:22:01.502Z,6
2022-11-28T10:28:21.592Z,6
2022-11-28T10:34:44.602Z,5.4
2022-11-28T10:41:04.587Z,5.4
2022-11-28T10:47:27.655Z,6.9
2022-11-28T10:53:47.613Z,6.9
2022-11-28T11:00:10.590Z,4.7
2022-11-28T11:06:41.257Z,4.7
2022-11-28T11:12:53.993Z,5.8
2022-11-28T11:19:13.630Z,5.8
2022-11-28T11:25:36.613Z,5.5
2022-11-28T11:31:56.664Z,5.5
2022-11-28T11:38:19.508Z,3.3
2022-11-28T11:44:39.524Z,3.3
2022-11-28T11:51:02.616Z,8.2
2022-11-28T11:57:32.941Z,8.2
2022-11-28T12:03:45.657Z,7.4
2022-11-28T12:10:05.551Z,7.4
2022-11-28T12:16:28.639Z,6
2022-11-28T12:22:48.537Z,6
2022-11-28T12:29:11.673Z,8.2
2022-11-28T12:35:31.548Z,8.2
2022-11-28T12:41:54.565Z,5
2022-11-28T12:48:14.661Z,5
2022-11-28T12:54:37.543Z,5.9
2022-11-28T13:00:57.573Z,5.9
2022-11-28T13:07:20.845Z,5
2022-11-28T13:13:40.569Z,5
2022-11-28T13:20:03.575Z,6.1
2022-11-28T13:26:23.590Z,6.1
2022-11-28T13:32:46.622Z,6.5
2022-11-28T13:39:12.699Z,6.5
2022-11-28T13:45:32.164Z,7.7
2022-11-28T13:51:49.652Z,7.7
2022-11-28T13:58:12.540Z,4.9
2022-11-28T14:04:32.605Z,4.9
2022-11-28T14:10:56.505Z,6.7
2022-11-28T14:17:15.515Z,6.7
2022-11-28T14:23:38.644Z,4.3
2022-11-28T14:29:58.883Z,4.3
2022-11-28T14:36:21.618Z,6.7
2022-11-28T14:59:46.430Z,9.9
2022-11-28T15:06:06.558Z,9.9
2022-11-28T15:12:29.556Z,6.3
2022-11-28T15:18:49.538Z,6.3
2022-11-28T15:25:12.505Z,5.1
2022-11-28T15:31:32.630Z,5.1
2022-11-28T15:37:55.540Z,3.1
2022-11-28T15:44:15.737Z,3.1
2022-11-28T15:50:38.572Z,4.6
2022-11-28T15:56:58.617Z,4.6
2022-11-28T16:03:21.589Z,5.3
2022-11-28T16:09:41.495Z,5.3
2022-11-28T16:16:04.981Z,4.1
2022-11-28T16:22:24.571Z,4.1
2022-11-28T16:28:47.539Z,6.9
2022-11-28T16:35:07.621Z,6.9
2022-11-28T16:41:30.568Z,4.9
2022-11-28T16:47:50.571Z,4.9
2022-11-28T16:54:13.567Z,3.9
2022-11-28T17:00:33.576Z,3.9
2022-11-28T17:06:56.577Z,4.2
2022-11-28T17:13:16.517Z,4.2
2022-11-28T17:19:39.643Z,7.2
2022-11-28T17:25:59.530Z,7.2
2022-11-28T17:32:22.616Z,7
2022-11-28T17:38:42.586Z,7
2022-11-28T17:45:05.500Z,4.9
2022-11-28T17:51:25.626Z,4.9
2022-11-28T17:57:48.567Z,4.3
2022-11-28T18:04:08.535Z,4.3
2022-11-28T18:10:31.619Z,5
2022-11-28T18:16:51.516Z,5
2022-11-28T18:23:14.593Z,4.8
2022-11-28T18:29:34.576Z,4.8
2022-11-28T18:35:57.574Z,5.3
2022-11-28T18:42:17.523Z,5.3
2022-11-28T18:48:40.586Z,5.8
2022-11-28T18:55:00.557Z,5.8
2022-11-28T19:01:23.702Z,5.9
2022-11-28T19:07:43.652Z,5.9
2022-11-28T19:14:06.587Z,7.7
2022-11-28T19:20:26.566Z,7.7
2022-11-28T19:26:49.624Z,7.1
2022-11-28T19:33:09.544Z,7.1
2022-11-28T19:39:32.560Z,7.8
2022-11-28T19:45:52.692Z,7.8
2022-11-28T19:52:15.564Z,5.8
2022-11-28T20:15:56.507Z,7.2
2022-11-28T20:22:16.480Z,7.2
2022-11-28T20:28:39.598Z,6.7
2022-11-28T20:34:59.628Z,6.7
2022-11-28T20:41:22.554Z,6.5
2022-11-28T20:47:46.805Z,6.5
2022-11-28T20:54:05.603Z,7.4
2022-11-28T21:00:26.811Z,7.4
2022-11-28T21:06:49.517Z,6.1
2022-11-28T21:13:09.493Z,6.1
2022-11-28T21:19:32.663Z,7.7
2022-11-28T21:25:52.599Z,7.7
2022-11-28T21:32:15.576Z,6.1
2022-11-28T21:38:35.510Z,6.1
2022-11-28T21:44:58.501Z,9.8
2022-11-28T21:51:18.554Z,9.8
2022-11-28T21:57:41.560Z,5.9
2022-11-28T22:04:02.966Z,5.9
2022-11-28T22:10:24.633Z,5.9
2022-11-28T22:16:44.616Z,5.9
2022-11-28T22:23:07.580Z,5.8
2022-11-28T22:29:27.958Z,5.8
2022-11-28T22:35:50.810Z,10.6
2022-11-28T22:42:10.595Z,10.6
2022-11-28T22:48:33.560Z,5.3
2022-11-28T22:54:53.583Z,5.3
2022-11-28T23:01:16.577Z,8.1
2022-11-28T23:24:13.483Z,22
2022-11-28T23:30:33.515Z,22
2022-11-28T23:36:56.541Z,22
2022-11-28T23:43:16.626Z,22
2022-11-28T23:49:39.566Z,10
2022-11-28T23:55:59.586Z,10
